Time;durP1;ratioP1;P1;durP2;ratioP2;P2;SDS_P1;SDS_P2;PMS_P1;PMS_P2;Temp;Humidity;BMP_temperature;BMP_pressure;BME280_temperature;BME280_humidity;BME280_pressure;Samples;Min_cycle;Max_cycle;Signal;HPM_P1;HPM_P2
2023/02/13 00:00:38;;;;;;;87.65;26.95;;;0.40;99.90;;;;;;5029118;28;20053;-81
2023/02/13 00:03:06;;;;;;;96.55;30.95;;;0.40;99.90;;;;;;5017095;28;20399;-81
2023/02/13 00:05:34;;;;;;;79.82;27.38;;;0.40;99.90;;;;;;4991021;28;20048;-81
2023/02/13 00:08:01;;;;;;;90.63;30.90;;;0.40;99.90;;;;;;5013136;28;20505;-81
2023/02/13 00:10:28;;;;;;;84.68;25.80;;;0.40;99.90;;;;;;5019297;28;20109;-81
2023/02/13 00:12:55;;;;;;;72.90;25.88;;;0.30;99.90;;;;;;4979158;28;20040;-81
2023/02/13 00:15:22;;;;;;;76.28;27.90;;;0.30;99.90;;;;;;5014557;28;20541;-81
2023/02/13 00:17:49;;;;;;;83.57;24.70;;;0.30;99.90;;;;;;4996032;28;20048;-81
2023/02/13 00:20:16;;;;;;;75.15;26.48;;;0.30;99.90;;;;;;5013645;28;20052;-81
2023/02/13 00:22:44;;;;;;;76.93;25.48;;;0.20;99.90;;;;;;5006734;28;20041;-80
2023/02/13 00:25:11;;;;;;;65.10;23.80;;;0.20;99.90;;;;;;5003229;28;20158;-81
2023/02/13 00:27:38;;;;;;;65.97;22.98;;;0.20;99.90;;;;;;4995675;28;20048;-81
2023/02/13 00:30:06;;;;;;;73.60;25.00;;;0.20;99.90;;;;;;5012704;28;20053;-81
2023/02/13 00:32:33;;;;;;;77.45;24.08;;;0.20;99.90;;;;;;5013586;28;20059;-80
2023/02/13 00:35:00;;;;;;;66.55;24.70;;;0.20;99.90;;;;;;5006595;28;20452;-81
2023/02/13 00:37:29;;;;;;;65.95;24.92;;;0.10;99.90;;;;;;5002990;28;22300;-80
2023/02/13 00:39:56;;;;;;;70.50;23.50;;;0.10;99.90;;;;;;4988445;28;20045;-81
2023/02/13 00:42:25;;;;;;;64.65;23.95;;;0.10;99.90;;;;;;4989988;28;20095;-81
2023/02/13 00:44:53;;;;;;;67.40;25.90;;;0.10;99.90;;;;;;5029631;28;20041;-81
2023/02/13 00:47:22;;;;;;;58.60;21.98;;;0.10;99.90;;;;;;5016481;28;20049;-81
2023/02/13 00:49:49;;;;;;;66.07;21.30;;;0.00;99.90;;;;;;4986536;28;20504;-80
2023/02/13 00:52:16;;;;;;;72.50;23.75;;;0.00;99.90;;;;;;5011470;28;20037;-81
2023/02/13 00:54:43;;;;;;;66.07;24.08;;;0.00;99.90;;;;;;5014250;28;22470;-81
2023/02/13 00:57:11;;;;;;;66.43;24.00;;;0.00;99.90;;;;;;5005603;28;20056;-81
2023/02/13 00:59:41;;;;;;;66.97;23.35;;;-0.10;99.90;;;;;;5014090;28;20191;-81
2023/02/13 01:02:08;;;;;;;66.25;22.98;;;-0.10;99.90;;;;;;5011922;28;20064;-81
2023/02/13 01:04:35;;;;;;;66.53;23.35;;;-0.10;99.90;;;;;;4994568;28;22395;-81
2023/02/13 01:07:02;;;;;;;73.47;23.88;;;-0.10;99.90;;;;;;5007401;28;20083;-80
2023/02/13 01:09:29;;;;;;;66.95;23.90;;;-0.20;99.90;;;;;;5007239;28;20049;-81
2023/02/13 01:11:57;;;;;;;72.50;23.05;;;-0.20;99.90;;;;;;4989090;28;20275;-80
2023/02/13 01:14:24;;;;;;;62.05;22.42;;;-0.20;99.90;;;;;;4977683;28;20054;-81
2023/02/13 01:16:52;;;;;;;73.90;25.50;;;-0.20;99.90;;;;;;4991005;28;20167;-81
2023/02/13 01:19:19;;;;;;;70.65;25.00;;;-0.20;99.90;;;;;;4997664;28;20036;-80
2023/02/13 01:21:46;;;;;;;73.05;26.10;;;-0.20;99.90;;;;;;5006852;28;20057;-81
2023/02/13 01:24:13;;;;;;;65.35;24.52;;;-0.30;99.90;;;;;;4987350;28;20057;-81
2023/02/13 01:26:40;;;;;;;60.13;24.02;;;-0.30;99.90;;;;;;5012791;28;20043;-80
2023/02/13 01:29:11;;;;;;;65.38;22.40;;;-0.40;99.90;;;;;;5004966;28;20060;-81
2023/02/13 01:31:39;;;;;;;60.50;21.02;;;-0.40;99.90;;;;;;5017314;28;20049;-80
2023/02/13 01:34:06;;;;;;;45.92;17.33;;;-0.30;99.90;;;;;;5004759;28;20516;-81
2023/02/13 01:36:33;;;;;;;49.22;18.10;;;-0.30;99.90;;;;;;4984982;28;22234;-81
2023/02/13 01:39:00;;;;;;;57.05;19.65;;;-0.30;99.90;;;;;;5001561;28;20045;-81
2023/02/13 01:41:27;;;;;;;47.33;20.17;;;-0.40;99.90;;;;;;4992187;28;20052;-80
2023/02/13 01:43:58;;;;;;;58.00;22.33;;;-0.40;99.90;;;;;;4990872;28;20148;-80
2023/02/13 01:46:42;;;;;;;58.75;21.02;;;-0.40;99.90;;;;;;4993511;28;20060;-81
2023/02/13 01:49:21;;;;;;;52.92;19.45;;;-0.40;99.90;;;;;;5011419;28;20061;-81
2023/02/13 01:51:53;;;;;;;50.55;18.08;;;-0.40;99.90;;;;;;4992125;28;20101;-80
2023/02/13 01:54:30;;;;;;;52.35;18.15;;;-0.40;99.90;;;;;;4991884;28;20439;-81
2023/02/13 01:57:05;;;;;;;61.70;20.95;;;-0.50;99.90;;;;;;4991730;28;20053;-80
2023/02/13 01:59:36;;;;;;;;;;;-0.50;99.90;;;;;;5007415;28;20102;-80
2023/02/13 02:02:03;;;;;;;52.15;17.27;;;-0.50;99.90;;;;;;5011192;28;20295;-80
2023/02/13 02:04:34;;;;;;;51.97;17.30;;;-0.50;99.90;;;;;;5006256;28;20191;-81
2023/02/13 02:07:12;;;;;;;46.97;16.33;;;-0.50;99.90;;;;;;5007180;28;20079;-80
2023/02/13 02:09:44;;;;;;;51.33;17.77;;;-0.50;99.90;;;;;;4991613;28;20060;-81
2023/02/13 02:12:18;;;;;;;44.65;15.18;;;-0.50;99.90;;;;;;4991108;28;20041;-80
2023/02/13 02:14:45;;;;;;;;;;;-0.50;99.90;;;;;;5007021;28;20150;-81
2023/02/13 02:17:13;;;;;;;44.40;14.50;;;-0.50;99.90;;;;;;4989677;28;19928;-80
2023/02/13 02:19:58;;;;;;;47.25;15.50;;;-0.50;99.90;;;;;;4983264;28;20072;-80
2023/02/13 02:22:49;;;;;;;49.60;17.27;;;-0.60;99.90;;;;;;5001979;28;20146;-80
2023/02/13 02:25:16;;;;;;;38.72;14.15;;;-0.50;99.90;;;;;;5022405;28;20053;-80
2023/02/13 02:28:08;;;;;;;42.55;14.35;;;-0.60;99.90;;;;;;4995277;28;20179;-81
2023/02/13 02:30:45;;;;;;;43.72;15.23;;;-0.60;99.90;;;;;;5025532;28;20819;-80
2023/02/13 02:33:26;;;;;;;41.60;14.43;;;-0.60;99.90;;;;;;4991366;28;20146;-80
2023/02/13 02:36:02;;;;;;;38.92;14.07;;;-0.60;99.90;;;;;;5006810;28;20052;-80
2023/02/13 02:38:47;;;;;;;40.25;13.65;;;-0.60;99.90;;;;;;4993912;28;20175;-80
2023/02/13 02:41:55;;;;;;;34.13;14.10;;;-0.70;99.90;;;;;;5000270;28;20594;-80
2023/02/13 02:44:36;;;;;;;37.05;12.90;;;-0.60;99.90;;;;;;5023433;28;20068;-80
2023/02/13 02:50:36;;;;;;;37.33;12.07;;;-0.70;99.90;;;;;;4986660;28;20076;-80
2023/02/13 02:53:06;;;;;;;34.00;12.38;;;-0.70;99.90;;;;;;5002082;28;20049;-80
2023/02/13 02:55:48;;;;;;;35.10;11.48;;;-0.70;99.90;;;;;;5019385;28;20084;-80
2023/02/13 03:07:39;;;;;;;32.72;12.02;;;-0.80;99.90;;;;;;5010568;28;20057;-80
2023/02/13 03:13:47;;;;;;;35.33;12.18;;;-0.80;99.90;;;;;;5011757;28;20045;-81
2023/02/13 03:24:51;;;;;;;37.80;12.55;;;-0.90;99.90;;;;;;5005907;28;20481;-80
2023/02/13 03:30:58;;;;;;;30.40;10.48;;;-0.90;99.90;;;;;;4988605;28;20068;-80
2023/02/13 03:33:49;;;;;;;36.45;11.80;;;-0.90;99.90;;;;;;5005666;28;20138;-80
2023/02/13 03:39:48;;;;;;;35.03;12.52;;;-0.90;99.90;;;;;;5005484;28;20909;-80
2023/02/13 03:42:36;;;;;;;36.38;11.43;;;-1.00;99.90;;;;;;5007484;28;22320;-80
2023/02/13 03:48:08;;;;;;;34.33;12.50;;;-1.00;99.90;;;;;;5018153;28;23673;-81
2023/02/13 03:50:42;;;;;;;32.67;12.10;;;-1.00;99.90;;;;;;5010858;28;20057;-81
2023/02/13 03:53:12;;;;;;;42.00;13.20;;;-1.00;99.90;;;;;;5033602;28;20051;-80
2023/02/13 04:01:26;;;;;;;33.28;12.07;;;-1.10;99.90;;;;;;4991246;28;20049;-81
2023/02/13 04:04:21;;;;;;;34.58;12.68;;;-1.10;99.90;;;;;;5026013;28;20059;-80
2023/02/13 04:06:58;;;;;;;38.67;12.00;;;-1.10;99.90;;;;;;4994657;28;20898;-80
2023/02/13 04:09:28;;;;;;;36.10;11.93;;;-1.10;99.90;;;;;;4991098;28;20580;-80
2023/02/13 04:12:15;;;;;;;38.92;13.35;;;-1.10;99.90;;;;;;5020911;28;20056;-80
2023/02/13 04:15:03;;;;;;;36.40;12.00;;;-1.20;99.90;;;;;;5012203;28;20047;-80
2023/02/13 04:17:35;;;;;;;35.22;11.98;;;-1.20;99.90;;;;;;4993865;28;20822;-80
2023/02/13 04:20:03;;;;;;;35.73;12.50;;;-1.20;99.90;;;;;;4994718;28;20049;-80
2023/02/13 04:22:31;;;;;;;35.47;12.05;;;-1.20;99.90;;;;;;5009631;28;20302;-80
2023/02/13 04:24:58;;;;;;;37.63;12.45;;;-1.20;99.90;;;;;;5023205;28;20806;-80
2023/02/13 04:27:27;;;;;;;42.70;15.38;;;-1.20;99.90;;;;;;5012764;28;20045;-80
2023/02/13 04:29:54;;;;;;;45.58;15.50;;;-1.20;99.90;;;;;;4999928;28;22244;-80
2023/02/13 04:32:21;;;;;;;31.05;13.10;;;-1.30;99.90;;;;;;4990583;28;22423;-80
2023/02/13 04:34:48;;;;;;;34.13;13.85;;;-1.20;99.90;;;;;;4982175;28;20041;-80
2023/02/13 04:37:15;;;;;;;33.05;13.25;;;-1.30;99.90;;;;;;4994929;28;20477;-80
2023/02/13 04:39:42;;;;;;;35.50;12.02;;;-1.20;99.90;;;;;;5013694;28;20052;-80
2023/02/13 04:42:09;;;;;;;32.13;10.88;;;-1.20;99.90;;;;;;4991323;28;20072;-81
2023/02/13 04:44:36;;;;;;;33.95;11.93;;;-1.20;99.90;;;;;;5033309;28;20048;-80
2023/02/13 04:47:03;;;;;;;36.47;13.50;;;-1.20;99.90;;;;;;5000314;28;20588;-80
2023/02/13 04:49:31;;;;;;;38.25;14.55;;;-1.30;99.90;;;;;;4982481;28;20056;-80
2023/02/13 04:51:58;;;;;;;37.53;12.65;;;-1.30;99.90;;;;;;5026772;28;20087;-81
2023/02/13 04:54:25;;;;;;;36.15;13.20;;;-1.30;99.90;;;;;;5029380;28;20143;-81
2023/02/13 04:56:52;;;;;;;38.08;13.02;;;-1.30;99.90;;;;;;5016894;28;20273;-80
2023/02/13 04:59:19;;;;;;;36.22;11.55;;;-1.30;99.90;;;;;;5013260;28;20529;-80
2023/02/13 05:01:46;;;;;;;36.45;11.55;;;-1.40;99.90;;;;;;5029389;28;20041;-80
2023/02/13 05:04:15;;;;;;;38.72;13.35;;;-1.40;99.90;;;;;;4997552;28;20052;-81
2023/02/13 05:06:42;;;;;;;38.17;13.68;;;-1.40;99.90;;;;;;5014799;28;20480;-81
2023/02/13 05:09:10;;;;;;;38.85;12.68;;;-1.40;99.90;;;;;;5016018;28;20052;-80
2023/02/13 05:11:37;;;;;;;38.78;12.52;;;-1.50;99.90;;;;;;5010284;28;20617;-80
2023/02/13 05:14:04;;;;;;;39.85;13.55;;;-1.50;99.90;;;;;;5011260;28;20086;-80
2023/02/13 05:16:31;;;;;;;46.55;15.18;;;-1.50;99.90;;;;;;5013199;28;20049;-80
2023/02/13 05:18:58;;;;;;;45.40;13.90;;;-1.50;99.90;;;;;;4994162;28;20040;-81
2023/02/13 05:24:11;;;;;;;40.70;14.07;;;-1.50;99.90;;;;;;5011929;28;20735;-81
2023/02/13 05:26:38;;;;;;;37.28;12.88;;;-1.60;99.90;;;;;;5016242;28;20048;-80
2023/02/13 05:29:17;;;;;;;43.38;16.27;;;-1.60;99.90;;;;;;4999508;28;20060;-80
2023/02/13 05:31:46;;;;;;;43.53;14.95;;;-1.60;99.90;;;;;;5006902;28;20048;-81
2023/02/13 05:34:13;;;;;;;47.50;15.13;;;-1.60;99.90;;;;;;5001009;28;20044;-80
2023/02/13 05:36:41;;;;;;;50.85;16.38;;;-1.60;99.90;;;;;;5008927;28;20037;-80
2023/02/13 05:39:08;;;;;;;51.05;14.70;;;-1.60;99.90;;;;;;5012718;28;20059;-81
2023/02/13 05:41:35;;;;;;;44.55;15.55;;;-1.60;99.90;;;;;;5003316;28;20057;-81
2023/02/13 05:44:03;;;;;;;51.05;17.13;;;-1.60;99.90;;;;;;5009241;28;20048;-81
2023/02/13 05:46:30;;;;;;;53.10;17.92;;;-1.60;99.90;;;;;;5014945;28;20049;-80
2023/02/13 05:48:57;;;;;;;59.17;18.73;;;-1.60;99.90;;;;;;5008133;28;20051;-81
2023/02/13 05:51:24;;;;;;;62.60;21.63;;;-1.70;99.90;;;;;;5031495;28;20057;-81
2023/02/13 05:53:52;;;;;;;51.83;20.55;;;-1.70;99.90;;;;;;5007356;28;20059;-80
2023/02/13 05:56:19;;;;;;;73.63;23.02;;;-1.70;99.90;;;;;;5011772;28;20033;-81
2023/02/13 05:58:46;;;;;;;71.53;25.75;;;-1.70;99.90;;;;;;4976823;28;20078;-81
2023/02/13 06:01:13;;;;;;;83.90;27.85;;;-1.70;99.90;;;;;;5001156;28;20170;-81
2023/02/13 06:03:40;;;;;;;91.28;29.95;;;-1.70;99.90;;;;;;4998884;28;22420;-81
2023/02/13 06:06:07;;;;;;;81.85;28.90;;;-1.70;99.90;;;;;;5008759;28;20052;-81
2023/02/13 06:08:35;;;;;;;76.90;28.85;;;-1.70;99.90;;;;;;4989407;28;20064;-80
2023/02/13 06:11:03;;;;;;;69.03;26.23;;;-1.80;99.90;;;;;;5029001;28;20142;-81
2023/02/13 06:13:30;;;;;;;59.95;23.77;;;-1.70;99.90;;;;;;5018269;28;20052;-80
2023/02/13 06:15:57;;;;;;;63.92;24.52;;;-1.90;99.90;;;;;;4998368;28;20075;-81
2023/02/13 06:18:24;;;;;;;85.40;29.17;;;-1.70;99.90;;;;;;4996783;28;20064;-81
2023/02/13 06:20:51;;;;;;;92.68;30.27;;;-1.70;99.90;;;;;;4993999;28;22445;-81
2023/02/13 06:23:18;;;;;;;96.00;31.80;;;-1.70;99.90;;;;;;5006783;28;20046;-80
2023/02/13 06:25:45;;;;;;;87.25;27.85;;;-1.70;99.90;;;;;;5013382;28;20053;-80
2023/02/13 06:28:13;;;;;;;83.93;28.13;;;-1.60;99.90;;;;;;5001495;28;20158;-80
2023/02/13 06:30:40;;;;;;;80.38;27.70;;;-1.60;99.90;;;;;;4991603;28;20049;-81
2023/02/13 06:33:07;;;;;;;79.75;25.30;;;-1.60;99.90;;;;;;5014208;28;20518;-80
2023/02/13 06:35:34;;;;;;;58.10;21.80;;;-1.60;99.90;;;;;;4981020;28;20045;-80
2023/02/13 06:38:01;;;;;;;54.20;17.83;;;-1.60;99.90;;;;;;4998423;28;20053;-81
2023/02/13 06:40:28;;;;;;;56.45;18.17;;;-1.60;99.90;;;;;;4999522;28;20526;-80
2023/02/13 06:42:56;;;;;;;56.25;19.50;;;-1.50;99.90;;;;;;4995744;28;20076;-80
2023/02/13 06:45:23;;;;;;;49.33;17.77;;;-1.40;99.90;;;;;;4998477;28;20523;-80
2023/02/13 06:47:50;;;;;;;43.00;16.83;;;-1.30;99.90;;;;;;4994072;28;20049;-81
2023/02/13 06:50:17;;;;;;;47.10;15.80;;;-1.20;99.90;;;;;;5000774;28;20283;-80
2023/02/13 06:52:46;;;;;;;45.35;16.65;;;-1.20;99.90;;;;;;4960742;28;20057;-80
2023/02/13 06:55:15;;;;;;;45.10;16.85;;;-1.10;99.90;;;;;;4990316;28;20100;-80
2023/02/13 06:57:45;;;;;;;46.30;17.95;;;-1.00;99.90;;;;;;5004529;28;22065;-80
2023/02/13 07:00:14;;;;;;;47.78;18.25;;;-1.00;99.90;;;;;;5000526;28;20092;-80
2023/02/13 07:02:43;;;;;;;50.95;18.33;;;-0.90;99.90;;;;;;4954447;28;20061;-81
2023/02/13 07:05:11;;;;;;;68.65;26.10;;;-0.80;99.90;;;;;;4971476;28;20099;-81
2023/02/13 07:07:40;;;;;;;155.07;60.30;;;-0.80;99.90;;;;;;4972913;28;20149;-81
2023/02/13 07:10:11;;;;;;;160.32;64.75;;;-0.80;99.90;;;;;;4976069;28;20046;-81
2023/02/13 07:12:38;;;;;;;218.80;79.32;;;-0.70;99.90;;;;;;4989233;28;20057;-81
2023/02/13 07:15:06;;;;;;;115.00;47.45;;;-0.70;99.90;;;;;;5003716;28;20048;-81
2023/02/13 07:17:34;;;;;;;129.82;46.47;;;-0.70;99.90;;;;;;4964528;28;20046;-81
2023/02/13 07:20:03;;;;;;;103.03;41.97;;;-0.60;99.90;;;;;;4946982;28;20045;-81
2023/02/13 07:22:31;;;;;;;80.22;32.60;;;-0.50;99.90;;;;;;5001081;28;20069;-81
2023/02/13 07:25:00;;;;;;;65.65;24.70;;;-0.40;99.90;;;;;;4964180;28;20053;-81
2023/02/13 07:27:28;;;;;;;56.50;21.55;;;-0.40;99.90;;;;;;4986315;28;20049;-81
2023/02/13 07:29:56;;;;;;;72.03;25.58;;;-0.30;99.90;;;;;;4962164;28;20059;-81
2023/02/13 07:32:24;;;;;;;74.35;27.80;;;-0.20;99.90;;;;;;4988768;28;20050;-81
2023/02/13 07:34:51;;;;;;;137.32;42.05;;;-0.20;99.90;;;;;;4988639;28;20661;-81
2023/02/13 07:37:31;;;;;;;150.40;46.70;;;0.00;99.90;;;;;;4983922;28;22410;-81
2023/02/13 07:39:58;;;;;;;123.00;40.78;;;0.00;99.90;;;;;;4991265;28;21098;-81
2023/02/13 07:42:25;;;;;;;99.70;35.22;;;0.10;99.90;;;;;;5007611;28;20150;-81
2023/02/13 07:44:52;;;;;;;83.22;30.73;;;0.20;99.90;;;;;;4986301;28;20045;-81
2023/02/13 07:47:19;;;;;;;84.30;32.72;;;0.20;99.90;;;;;;5016113;28;20052;-81
2023/02/13 07:49:47;;;;;;;68.90;26.35;;;0.30;99.90;;;;;;5015363;28;20222;-81
2023/02/13 07:52:14;;;;;;;70.15;25.92;;;0.40;99.90;;;;;;4978106;28;22365;-82
2023/02/13 07:54:46;;;;;;;63.47;22.25;;;0.50;99.90;;;;;;5037163;28;20063;-81
2023/02/13 07:57:17;;;;;;;60.42;22.33;;;0.60;99.90;;;;;;5009903;28;20041;-81
2023/02/13 07:59:44;;;;;;;56.55;21.08;;;0.60;99.90;;;;;;4992587;28;20193;-81
2023/02/13 08:02:13;;;;;;;46.00;19.33;;;0.70;99.90;;;;;;5017968;28;20053;-82
2023/02/13 08:04:44;;;;;;;40.15;14.80;;;0.80;99.90;;;;;;5036503;28;20052;-82
2023/02/13 08:07:16;;;;;;;30.23;10.60;;;0.90;99.90;;;;;;5018077;28;20936;-81
2023/02/13 08:12:33;;;;;;;37.50;12.00;;;1.00;99.90;;;;;;5024009;28;20187;-81
2023/02/13 08:15:01;;;;;;;34.40;14.05;;;1.10;99.90;;;;;;5006190;28;20060;-81
2023/02/13 08:17:28;;;;;;;27.30;10.80;;;1.20;99.90;;;;;;4994446;28;20056;-82
2023/02/13 08:19:55;;;;;;;34.33;12.48;;;1.20;99.90;;;;;;5039984;28;20056;-81
2023/02/13 08:22:22;;;;;;;28.63;10.65;;;1.30;99.90;;;;;;5036984;28;20049;-81
2023/02/13 08:24:49;;;;;;;27.92;10.68;;;1.40;99.90;;;;;;5020274;28;20057;-81
2023/02/13 08:27:17;;;;;;;25.63;10.73;;;1.40;99.90;;;;;;4997064;28;20064;-81
2023/02/13 08:29:44;;;;;;;24.33;9.38;;;1.50;99.90;;;;;;5028174;28;20507;-82
2023/02/13 08:32:12;;;;;;;23.05;9.25;;;1.50;99.90;;;;;;4994172;28;20048;-81
2023/02/13 08:34:39;;;;;;;22.17;7.90;;;1.60;99.90;;;;;;5032695;28;20134;-81
2023/02/13 08:37:06;;;;;;;26.80;9.93;;;1.70;99.90;;;;;;5003951;28;20068;-81
2023/02/13 08:39:34;;;;;;;25.15;9.68;;;1.70;99.90;;;;;;5022263;28;20056;-81
2023/02/13 08:42:01;;;;;;;24.65;9.45;;;1.80;99.90;;;;;;5003900;28;20076;-81
2023/02/13 08:44:30;;;;;;;26.73;10.45;;;1.90;99.90;;;;;;4997270;28;20526;-81
2023/02/13 08:46:59;;;;;;;31.23;11.43;;;2.00;99.90;;;;;;4998713;28;20474;-81
2023/02/13 08:49:27;;;;;;;23.60;9.68;;;2.00;99.90;;;;;;4995127;28;20406;-80
2023/02/13 08:51:54;;;;;;;28.52;9.70;;;2.10;99.90;;;;;;4997756;28;20147;-80
2023/02/13 08:54:21;;;;;;;25.40;9.85;;;2.10;99.90;;;;;;5018530;28;20495;-80
2023/02/13 08:56:48;;;;;;;24.92;9.95;;;2.20;99.90;;;;;;5021982;28;20195;-80
2023/02/13 08:59:15;;;;;;;26.90;10.13;;;2.20;99.90;;;;;;5029230;28;20036;-80
2023/02/13 09:01:42;;;;;;;28.38;11.23;;;2.30;99.90;;;;;;4983748;28;20056;-81
2023/02/13 09:04:10;;;;;;;24.27;10.50;;;2.40;99.90;;;;;;5018393;28;20045;-80
2023/02/13 09:06:37;;;;;;;32.63;12.20;;;2.40;99.90;;;;;;5019936;28;20148;-80
2023/02/13 09:09:05;;;;;;;27.15;9.73;;;2.50;99.90;;;;;;5014765;28;20155;-80
2023/02/13 09:11:33;;;;;;;28.50;10.93;;;2.50;99.90;;;;;;5004142;28;20102;-80
2023/02/13 09:14:01;;;;;;;27.95;11.73;;;2.60;99.90;;;;;;5018996;28;20045;-79
2023/02/13 09:16:28;;;;;;;26.40;11.50;;;2.70;99.90;;;;;;5016072;28;20036;-80
2023/02/13 09:18:56;;;;;;;27.63;10.68;;;2.80;99.90;;;;;;5016381;28;20051;-81
2023/02/13 09:21:23;;;;;;;26.02;10.38;;;2.80;99.90;;;;;;5032412;28;20064;-80
2023/02/13 09:23:51;;;;;;;30.60;10.50;;;2.90;99.90;;;;;;5000094;28;20056;-80
2023/02/13 09:26:19;;;;;;;28.45;11.50;;;3.00;99.90;;;;;;4998421;28;20053;-80
2023/02/13 09:28:47;;;;;;;28.17;11.52;;;3.10;99.90;;;;;;5000661;28;20052;-80
2023/02/13 09:31:17;;;;;;;24.10;9.40;;;3.20;99.90;;;;;;4992970;28;20048;-80
2023/02/13 09:33:47;;;;;;;26.20;10.57;;;3.20;99.90;;;;;;5017876;28;20125;-80
2023/02/13 09:36:18;;;;;;;32.83;11.85;;;3.30;99.90;;;;;;5015378;28;20044;-80
2023/02/13 09:38:54;;;;;;;30.13;11.93;;;3.30;99.80;;;;;;5013616;28;20044;-80
2023/02/13 09:41:27;;;;;;;28.65;11.98;;;3.40;99.60;;;;;;4990862;28;20678;-80
2023/02/13 09:44:32;;;;;;;26.65;11.27;;;3.40;99.90;;;;;;4984527;28;20076;-81
2023/02/13 09:47:06;;;;;;;23.38;9.57;;;3.60;99.70;;;;;;5004297;28;22515;-81
2023/02/13 09:49:39;;;;;;;27.90;10.48;;;3.60;99.70;;;;;;5015098;28;20843;-80
2023/02/13 09:52:08;;;;;;;26.10;10.60;;;3.70;99.40;;;;;;5007568;28;20655;-80
2023/02/13 09:54:35;;;;;;;27.58;12.45;;;3.80;99.50;;;;;;5021525;28;20483;-80
2023/02/13 09:57:16;;;;;;;26.40;12.13;;;3.80;99.40;;;;;;5020953;28;20052;-80
2023/02/13 09:59:56;;;;;;;29.08;11.95;;;3.90;98.80;;;;;;5011824;28;22068;-80
2023/02/13 10:02:57;;;;;;;25.27;10.55;;;4.00;98.70;;;;;;5006943;28;20049;-80
2023/02/13 10:05:51;;;;;;;29.17;11.70;;;4.00;98.90;;;;;;5001898;28;20585;-80
2023/02/13 10:08:34;;;;;;;25.58;10.98;;;4.10;98.80;;;;;;5029789;28;20054;-80
2023/02/13 10:11:29;;;;;;;29.15;12.02;;;4.10;98.60;;;;;;5006576;28;20052;-80
2023/02/13 10:14:11;;;;;;;28.48;10.88;;;4.10;97.60;;;;;;5020129;28;20982;-80
2023/02/13 10:16:49;;;;;;;27.15;10.00;;;4.20;98.90;;;;;;5009285;28;20047;-81
2023/02/13 10:19:38;;;;;;;28.00;10.63;;;4.20;97.70;;;;;;5011269;28;20032;-81
2023/02/13 10:22:11;;;;;;;26.55;11.13;;;4.30;98.10;;;;;;5008575;28;20044;-80
2023/02/13 10:25:01;;;;;;;27.38;10.68;;;4.40;97.10;;;;;;5010629;28;20059;-80
2023/02/13 10:27:36;;;;;;;27.67;10.48;;;4.50;98.00;;;;;;5011464;28;20684;-80
2023/02/13 10:30:25;;;;;;;28.48;12.18;;;4.60;97.50;;;;;;4987201;28;22266;-81
2023/02/13 10:33:17;;;;;;;27.48;11.43;;;4.80;98.10;;;;;;5010398;28;20048;-80
2023/02/13 10:36:03;;;;;;;28.15;11.52;;;4.80;96.80;;;;;;5010642;28;20041;-80
2023/02/13 10:38:33;;;;;;;28.67;12.98;;;4.70;95.50;;;;;;5015882;28;20044;-80
2023/02/13 10:41:05;;;;;;;29.05;11.48;;;4.80;95.40;;;;;;4998486;28;20064;-80
2023/02/13 10:43:56;;;;;;;26.20;12.05;;;4.80;95.30;;;;;;4985942;28;20056;-80
2023/02/13 10:46:45;;;;;;;26.80;11.85;;;5.00;95.60;;;;;;4994836;28;20633;-80
2023/02/13 10:49:30;;;;;;;28.60;12.45;;;5.00;94.90;;;;;;5008818;28;20815;-80
2023/02/13 10:52:16;;;;;;;33.42;16.65;;;5.10;94.90;;;;;;4984010;28;22363;-80
2023/02/13 10:54:53;;;;;;;28.30;11.50;;;5.00;94.40;;;;;;5009488;28;20196;-80
2023/02/13 10:58:00;;;;;;;27.98;12.15;;;5.00;93.90;;;;;;5019690;28;20039;-81
2023/02/13 11:00:55;;;;;;;30.15;11.55;;;5.10;93.80;;;;;;4955208;28;20739;-80
2023/02/13 11:03:25;;;;;;;24.92;10.80;;;5.20;94.00;;;;;;4995011;28;20953;-80
2023/02/13 11:05:54;;;;;;;24.92;10.10;;;5.20;93.50;;;;;;4988956;28;20678;-80
2023/02/13 11:08:32;;;;;;;27.83;11.82;;;5.20;93.40;;;;;;5010069;28;20998;-80
2023/02/13 11:10:59;;;;;;;29.38;12.38;;;5.20;93.40;;;;;;4994385;28;20509;-80
2023/02/13 11:13:28;;;;;;;30.08;12.13;;;5.30;93.30;;;;;;5019033;28;20045;-81
2023/02/13 11:16:09;;;;;;;24.25;10.40;;;5.30;93.10;;;;;;5018487;28;20076;-81
2023/02/13 11:18:43;;;;;;;26.27;11.02;;;5.50;93.30;;;;;;5015645;28;20084;-81
2023/02/13 11:21:20;;;;;;;30.52;11.20;;;5.60;93.30;;;;;;4990458;28;20044;-80
2023/02/13 11:23:52;;;;;;;29.10;12.20;;;5.60;92.90;;;;;;5013786;28;20052;-80
2023/02/13 11:26:25;;;;;;;29.20;11.00;;;5.70;93.00;;;;;;4994421;28;20048;-80
2023/02/13 11:29:00;;;;;;;28.13;11.48;;;5.90;93.00;;;;;;5014478;28;20062;-80
2023/02/13 11:31:30;;;;;;;25.25;10.77;;;5.90;93.20;;;;;;5011949;28;20554;-80
2023/02/13 11:33:59;;;;;;;25.55;11.32;;;5.90;92.70;;;;;;5020422;28;20052;-80
2023/02/13 11:36:35;;;;;;;29.45;11.70;;;6.00;93.30;;;;;;4997467;28;20110;-80
2023/02/13 11:39:17;;;;;;;27.83;11.88;;;6.00;92.30;;;;;;5007611;28;20101;-80
2023/02/13 11:41:46;;;;;;;29.13;12.23;;;6.10;92.40;;;;;;5023737;28;20051;-81
2023/02/13 11:44:31;;;;;;;28.90;11.50;;;6.10;92.30;;;;;;5002678;28;20060;-80
2023/02/13 11:47:04;;;;;;;30.58;12.15;;;6.20;92.20;;;;;;4999383;28;20163;-80
2023/02/13 11:49:34;;;;;;;32.58;14.30;;;6.30;92.20;;;;;;5016560;28;20141;-80
2023/02/13 11:52:21;;;;;;;41.47;16.77;;;6.40;91.50;;;;;;4999504;28;20060;-81
2023/02/13 11:54:56;;;;;;;22.40;10.82;;;6.40;91.90;;;;;;5013933;28;20055;-80
2023/02/13 11:57:24;;;;;;;30.50;13.48;;;6.30;91.50;;;;;;5016244;28;20055;-80
2023/02/13 11:59:52;;;;;;;29.42;11.95;;;6.40;92.10;;;;;;5007856;28;20044;-81
2023/02/13 12:02:22;;;;;;;26.48;11.60;;;6.30;91.40;;;;;;5017549;28;20951;-81
2023/02/13 12:04:52;;;;;;;29.63;11.65;;;6.40;91.90;;;;;;4995505;28;20095;-80
2023/02/13 12:07:26;;;;;;;23.67;10.88;;;6.40;91.90;;;;;;5017852;28;20195;-80
2023/02/13 12:10:22;;;;;;;27.27;12.20;;;6.50;91.60;;;;;;5016520;28;20814;-81
2023/02/13 12:12:52;;;;;;;31.95;13.35;;;6.50;91.20;;;;;;5012059;28;20082;-80
2023/02/13 12:15:23;;;;;;;38.22;12.63;;;6.50;91.20;;;;;;4999098;28;20574;-80
2023/02/13 12:18:05;;;;;;;32.85;13.25;;;6.50;91.00;;;;;;5021417;28;20040;-80
2023/02/13 12:20:59;;;;;;;28.67;12.27;;;6.50;90.80;;;;;;5017905;28;22174;-80
2023/02/13 12:23:33;;;;;;;45.78;19.90;;;6.60;91.00;;;;;;5022365;28;20956;-80
2023/02/13 12:26:17;;;;;;;29.60;14.05;;;6.70;90.80;;;;;;5033936;28;20123;-80
2023/02/13 12:29:24;;;;;;;33.88;13.10;;;6.70;90.70;;;;;;5028259;28;20059;-81
2023/02/13 12:32:13;;;;;;;28.92;12.70;;;6.70;90.30;;;;;;5013620;28;20056;-80
2023/02/13 12:34:42;;;;;;;30.92;11.60;;;6.70;90.20;;;;;;5030420;28;22249;-80
2023/02/13 12:37:25;;;;;;;34.10;12.75;;;6.80;90.10;;;;;;5002087;28;20045;-80
2023/02/13 12:40:15;;;;;;;27.20;14.25;;;6.70;89.40;;;;;;5020586;28;20049;-81
2023/02/13 12:43:09;;;;;;;35.45;13.93;;;6.70;89.90;;;;;;5018687;28;20115;-81
2023/02/13 12:46:11;;;;;;;31.50;12.77;;;6.80;90.10;;;;;;5039469;28;20098;-81
2023/02/13 12:48:57;;;;;;;29.15;12.88;;;6.70;89.20;;;;;;4997136;28;20056;-80
2023/02/13 12:51:42;;;;;;;30.15;13.35;;;6.70;89.60;;;;;;5028534;28;20057;-80
2023/02/13 12:54:16;;;;;;;29.70;13.65;;;6.80;89.60;;;;;;5025552;28;20055;-81
2023/02/13 12:56:59;;;;;;;32.50;14.05;;;6.80;89.30;;;;;;5041426;28;21689;-81
2023/02/13 12:59:32;;;;;;;33.55;14.43;;;6.80;89.60;;;;;;5034064;28;20075;-81
2023/02/13 13:02:10;;;;;;;32.72;14.65;;;6.70;88.90;;;;;;5006212;28;20052;-81
2023/02/13 13:04:43;;;;;;;35.33;13.73;;;6.80;90.00;;;;;;5016866;28;20060;-81
2023/02/13 13:07:42;;;;;;;30.45;13.73;;;6.90;89.70;;;;;;5026149;28;20620;-81
2023/02/13 13:10:16;;;;;;;34.20;16.15;;;6.90;90.00;;;;;;4986718;28;20182;-81
2023/02/13 13:13:07;;;;;;;35.30;14.05;;;6.80;89.50;;;;;;5004615;28;20045;-81
2023/02/13 13:15:42;;;;;;;33.78;14.27;;;6.80;89.20;;;;;;5014014;28;20166;-81
2023/02/13 13:18:31;;;;;;;32.97;13.63;;;6.80;89.30;;;;;;5028846;28;22381;-81
2023/02/13 13:21:56;;;;;;;31.70;14.43;;;6.80;89.20;;;;;;4988853;28;20624;-80
2023/02/13 13:24:44;;;;;;;34.78;14.82;;;6.80;89.40;;;;;;4964868;28;20052;-81
2023/02/13 13:27:35;;;;;;;33.55;14.80;;;6.80;89.70;;;;;;5010095;28;20056;-81
2023/02/13 13:30:18;;;;;;;32.28;13.57;;;6.80;89.80;;;;;;5021497;28;20422;-81
2023/02/13 13:32:51;;;;;;;34.75;15.52;;;6.80;89.90;;;;;;5023720;28;20056;-81
2023/02/13 13:35:20;;;;;;;36.70;13.97;;;6.80;90.10;;;;;;5025271;28;20051;-81
2023/02/13 13:38:11;;;;;;;34.88;15.52;;;6.90;89.90;;;;;;5002763;28;20301;-81
2023/02/13 13:40:48;;;;;;;32.78;13.68;;;6.90;89.60;;;;;;5040272;28;20068;-81
2023/02/13 13:43:24;;;;;;;32.38;13.90;;;6.80;90.00;;;;;;5012014;28;20052;-81
2023/02/13 13:46:34;;;;;;;29.85;13.82;;;6.80;90.10;;;;;;5021717;28;20202;-81
2023/02/13 13:49:28;;;;;;;30.35;13.88;;;6.80;90.00;;;;;;4973750;28;20057;-82